createdAt,value
2019-02-08T00:02:49.110Z,85.55
2019-02-08T00:06:04.942Z,85.88
2019-02-08T00:09:20.453Z,85.43
2019-02-08T00:12:36.001Z,85.69
2019-02-08T00:15:51.471Z,86.15
2019-02-08T00:19:06.700Z,85.98
2019-02-08T00:22:21.925Z,85.92
2019-02-08T00:25:37.225Z,85.74
2019-02-08T00:28:52.659Z,85.66
2019-02-08T00:32:08.344Z,84.96
2019-02-08T00:35:24.069Z,84.91
2019-02-08T00:38:39.431Z,84.59
2019-02-08T00:41:54.782Z,84.66
2019-02-08T00:45:10.182Z,84.67
2019-02-08T00:48:25.590Z,85.78
2019-02-08T00:51:41.053Z,86.13
2019-02-08T00:54:56.193Z,85.23
2019-02-08T00:58:11.449Z,85.22
2019-02-08T01:01:27.044Z,85.47
2019-02-08T01:04:42.446Z,85.29
2019-02-08T01:07:57.995Z,85.25
2019-02-08T01:11:13.563Z,85.34
2019-02-08T01:14:28.944Z,85.10
2019-02-08T01:17:44.178Z,84.89
2019-02-08T01:20:59.420Z,84.41
2019-02-08T01:24:14.803Z,84.18
2019-02-08T01:27:30.235Z,83.58
2019-02-08T01:30:45.570Z,83.99
2019-02-08T01:34:00.742Z,84.91
2019-02-08T01:37:16.394Z,84.63
2019-02-08T01:40:32.778Z,84.82
2019-02-08T01:43:48.035Z,84.92
2019-02-08T01:47:03.671Z,84.55
2019-02-08T01:50:21.158Z,84.89
2019-02-08T01:53:36.348Z,85.39
2019-02-08T01:56:51.686Z,85.23
2019-02-08T02:00:12.676Z,85.14
2019-02-08T02:03:28.023Z,85.00
2019-02-08T02:06:43.488Z,84.43
2019-02-08T02:09:58.865Z,84.68
2019-02-08T02:13:14.376Z,85.35
2019-02-08T02:16:29.639Z,85.34
2019-02-08T02:19:45.092Z,85.43
2019-02-08T02:23:00.635Z,85.85
2019-02-08T02:26:16.210Z,85.46
2019-02-08T02:29:31.563Z,85.16
2019-02-08T02:32:46.714Z,85.03
2019-02-08T02:36:02.177Z,85.35
2019-02-08T02:39:17.620Z,85.29
2019-02-08T02:42:32.770Z,84.74
2019-02-08T02:45:48.118Z,85.87
2019-02-08T02:49:03.576Z,85.40
2019-02-08T02:52:18.828Z,85.63
2019-02-08T02:55:34.393Z,86.18
2019-02-08T02:58:49.624Z,85.80
2019-02-08T03:02:05.209Z,85.87
2019-02-08T03:05:20.423Z,85.62
2019-02-08T03:08:35.814Z,86.25
2019-02-08T03:11:51.049Z,85.76
2019-02-08T03:15:06.201Z,85.54
2019-02-08T03:18:21.649Z,85.18
2019-02-08T03:21:36.944Z,86.14
2019-02-08T03:24:52.458Z,85.66
2019-02-08T03:28:07.812Z,85.68
2019-02-08T03:31:23.158Z,85.89
2019-02-08T03:34:38.213Z,85.93
2019-02-08T03:37:53.362Z,86.38
2019-02-08T03:41:08.739Z,86.20
2019-02-08T03:44:23.983Z,85.32
2019-02-08T03:47:39.218Z,85.18
2019-02-08T03:50:54.771Z,85.71
2019-02-08T03:54:09.818Z,86.00
2019-02-08T03:57:25.072Z,85.27
2019-02-08T04:00:52.482Z,85.45
2019-02-08T04:04:14.936Z,86.03
2019-02-08T04:07:30.265Z,85.88
2019-02-08T04:10:45.211Z,85.49
2019-02-08T04:14:00.470Z,85.79
2019-02-08T04:17:15.609Z,85.95
2019-02-08T04:20:31.052Z,85.52
2019-02-08T04:23:46.528Z,86.11
2019-02-08T04:27:01.663Z,86.24
2019-02-08T04:30:21.504Z,85.84
2019-02-08T04:33:37.693Z,85.78
2019-02-08T04:36:53.153Z,85.11
2019-02-08T04:40:08.198Z,85.10
2019-02-08T04:43:23.447Z,85.27
2019-02-08T04:46:38.900Z,85.28
2019-02-08T04:49:54.355Z,85.50
2019-02-08T04:53:11.585Z,85.41
2019-02-08T04:56:26.809Z,85.24
2019-02-08T04:59:42.362Z,85.40
2019-02-08T05:02:57.879Z,85.31
2019-02-08T05:06:13.158Z,85.29
2019-02-08T05:09:28.420Z,85.57
2019-02-08T05:12:43.983Z,85.54
2019-02-08T05:15:59.340Z,85.74
2019-02-08T05:19:14.683Z,85.78
2019-02-08T05:22:29.934Z,86.13
2019-02-08T05:25:45.615Z,85.98
2019-02-08T05:29:01.151Z,85.89
2019-02-08T05:32:16.299Z,85.51
2019-02-08T05:35:31.759Z,85.96
2019-02-08T05:38:46.907Z,86.03
2019-02-08T05:42:02.555Z,86.18
2019-02-08T05:45:17.826Z,86.32
2019-02-08T05:48:33.393Z,86.34
2019-02-08T05:51:48.722Z,85.85
2019-02-08T05:55:03.978Z,85.60
2019-02-08T05:58:19.132Z,85.52
2019-02-08T06:01:34.584Z,85.70
2019-02-08T06:04:49.932Z,85.83
2019-02-08T06:08:06.219Z,86.23
2019-02-08T06:11:21.664Z,86.00
2019-02-08T06:14:37.219Z,85.29
2019-02-08T06:17:52.656Z,85.39
2019-02-08T06:21:08.030Z,85.72
2019-02-08T06:24:23.309Z,84.90
2019-02-08T06:27:38.841Z,84.12
2019-02-08T06:30:54.291Z,83.92
2019-02-08T06:34:09.955Z,83.77
2019-02-08T06:37:25.982Z,83.61
2019-02-08T06:40:41.588Z,83.27
2019-02-08T06:43:58.289Z,82.59
2019-02-08T06:47:13.743Z,83.01
2019-02-08T06:50:29.079Z,83.12
2019-02-08T06:53:44.348Z,83.13
2019-02-08T06:57:08.745Z,83.49
2019-02-08T07:00:30.093Z,83.51
2019-02-08T07:04:02.217Z,83.41
2019-02-08T07:07:26.077Z,83.81
2019-02-08T07:10:55.965Z,83.69
2019-02-08T07:14:34.922Z,83.11
2019-02-08T07:18:13.920Z,82.60
2019-02-08T07:21:50.493Z,82.76
2019-02-08T07:25:18.690Z,82.42
2019-02-08T07:28:41.652Z,82.40
2019-02-08T07:32:07.026Z,82.48
2019-02-08T07:35:30.055Z,81.88
2019-02-08T07:39:00.057Z,82.63
2019-02-08T07:42:39.279Z,81.86
2019-02-08T07:46:01.575Z,81.27
2019-02-08T07:49:29.503Z,81.47
2019-02-08T07:53:11.532Z,80.71
2019-02-08T07:56:40.941Z,81.34
2019-02-08T08:00:15.292Z,81.29
2019-02-08T08:04:01.426Z,81.27
2019-02-08T08:07:29.980Z,81.39
2019-02-08T08:11:12.019Z,81.25
2019-02-08T08:14:51.309Z,81.37
2019-02-08T08:18:30.988Z,81.51
2019-02-08T08:21:53.622Z,82.22
2019-02-08T08:25:24.685Z,81.80
2019-02-08T08:29:06.966Z,81.85
2019-02-08T08:32:29.617Z,81.31
2019-02-08T08:36:19.973Z,81.63
2019-02-08T08:39:58.163Z,81.92
2019-02-08T08:43:59.533Z,81.49
2019-02-08T08:48:30.388Z,81.97
2019-02-08T08:52:25.928Z,81.82
2019-02-08T08:56:18.978Z,82.23
2019-02-08T09:00:12.398Z,82.23
2019-02-08T09:04:08.991Z,82.35
2019-02-08T09:08:10.087Z,82.14
2019-02-08T09:11:52.123Z,82.55
2019-02-08T09:15:29.203Z,81.79
2019-02-08T09:19:07.514Z,80.73
2019-02-08T09:23:10.902Z,80.00
2019-02-08T09:26:56.884Z,80.14
2019-02-08T09:30:40.067Z,79.94
2019-02-08T09:34:32.071Z,79.88
2019-02-08T09:38:25.404Z,80.35
2019-02-08T09:42:39.108Z,79.62
2019-02-08T09:46:29.518Z,80.06
2019-02-08T09:50:17.768Z,80.91
2019-02-08T09:54:12.403Z,80.94
2019-02-08T09:58:02.918Z,80.47
2019-02-08T10:01:53.888Z,79.97
2019-02-08T10:06:04.810Z,79.87
2019-02-08T10:09:54.334Z,79.31
2019-02-08T10:13:44.319Z,79.58
2019-02-08T10:17:39.556Z,78.84
2019-02-08T10:21:18.914Z,79.05
2019-02-08T10:25:22.523Z,78.40
2019-02-08T10:29:13.593Z,77.65
2019-02-08T10:33:22.235Z,77.18
2019-02-08T10:37:20.352Z,76.67
2019-02-08T10:41:10.050Z,76.86
2019-02-08T10:44:51.537Z,77.38
2019-02-08T10:48:43.027Z,76.65
2019-02-08T10:52:39.612Z,76.90
2019-02-08T10:56:37.913Z,77.18
2019-02-08T11:00:19.685Z,76.24
2019-02-08T11:04:12.031Z,76.74
2019-02-08T11:08:12.964Z,75.75
2019-02-08T11:12:10.359Z,75.45
2019-02-08T11:16:02.504Z,75.38
2019-02-08T11:19:16.103Z,75.11
2019-02-08T11:22:31.539Z,74.94
2019-02-08T11:25:46.648Z,75.78
2019-02-08T11:29:01.972Z,75.16
2019-02-08T11:32:17.158Z,74.92
2019-02-08T11:35:32.336Z,74.34
2019-02-08T11:38:47.459Z,73.65
2019-02-08T11:42:03.998Z,73.50
2019-02-08T11:45:19.006Z,73.54
2019-02-08T11:48:34.606Z,72.97
2019-02-08T11:51:50.024Z,73.71
2019-02-08T11:55:05.687Z,73.15
2019-02-08T11:58:21.146Z,73.06
2019-02-08T12:01:39.365Z,73.54
2019-02-08T12:04:54.737Z,73.82
2019-02-08T12:08:10.584Z,74.66
2019-02-08T12:11:25.736Z,74.14
2019-02-08T12:14:41.900Z,73.65
2019-02-08T12:17:57.470Z,73.62
2019-02-08T12:21:12.730Z,71.77
2019-02-08T12:24:28.203Z,72.04
2019-02-08T12:27:43.622Z,71.25
2019-02-08T12:30:59.178Z,70.90
2019-02-08T12:34:14.555Z,71.61
2019-02-08T12:37:29.722Z,71.15
2019-02-08T12:40:45.347Z,72.30
2019-02-08T12:44:00.475Z,71.82
2019-02-08T12:47:15.760Z,72.31
2019-02-08T12:50:31.248Z,73.01
2019-02-08T12:53:46.759Z,73.56
2019-02-08T12:57:01.931Z,72.72
2019-02-08T13:00:17.445Z,72.61
2019-02-08T13:03:32.930Z,72.49
2019-02-08T13:06:48.283Z,73.22
2019-02-08T13:10:04.005Z,73.93
2019-02-08T13:13:19.351Z,73.79
2019-02-08T13:16:35.001Z,74.55
2019-02-08T13:19:50.199Z,74.51
2019-02-08T13:23:25.239Z,74.60
2019-02-08T13:26:40.900Z,74.87
2019-02-08T13:29:56.261Z,75.69
2019-02-08T13:33:11.678Z,76.37
2019-02-08T13:36:27.026Z,76.98
2019-02-08T13:39:42.526Z,77.44
2019-02-08T13:42:57.740Z,77.83
2019-02-08T13:46:13.292Z,77.19
2019-02-08T13:49:28.448Z,77.43
2019-02-08T13:52:43.705Z,77.18
2019-02-08T13:55:58.926Z,77.00
2019-02-08T13:59:14.427Z,76.72
2019-02-08T14:02:29.899Z,76.84
2019-02-08T14:05:45.110Z,76.43
2019-02-08T14:15:57.510Z,75.25
2019-02-08T14:19:12.912Z,74.68
2019-02-08T14:22:27.994Z,74.32
2019-02-08T14:25:43.476Z,73.76
2019-02-08T14:28:59.027Z,73.75
2019-02-08T14:32:14.517Z,73.33
2019-02-08T14:35:30.028Z,73.37
2019-02-08T14:38:45.401Z,72.13
2019-02-08T14:42:00.629Z,72.33
2019-02-08T14:45:16.549Z,71.91
2019-02-08T14:48:31.884Z,72.09
2019-02-08T14:51:47.325Z,71.42
2019-02-08T14:55:02.878Z,71.44
2019-02-08T14:58:18.340Z,70.56
2019-02-08T15:01:33.803Z,70.41
2019-02-08T15:04:49.246Z,70.96
2019-02-08T15:08:04.788Z,71.18
2019-02-08T15:11:20.137Z,70.96
2019-02-08T15:14:35.533Z,70.52
2019-02-08T15:17:51.073Z,70.65
2019-02-08T15:21:06.954Z,70.17
2019-02-08T15:24:22.289Z,70.05
2019-02-08T15:27:37.450Z,70.87
2019-02-08T15:30:53.045Z,70.36
2019-02-08T15:34:08.187Z,70.73
2019-02-08T15:37:23.499Z,70.45
2019-02-08T15:40:47.511Z,70.53
2019-02-08T15:44:02.688Z,70.60
2019-02-08T15:47:18.072Z,71.42
2019-02-08T15:50:33.722Z,70.87
2019-02-08T15:53:48.978Z,70.55
2019-02-08T15:57:03.940Z,70.06
2019-02-08T16:00:22.310Z,70.13
2019-02-08T16:03:37.792Z,70.57
2019-02-08T16:06:53.040Z,70.88
2019-02-08T16:10:07.996Z,69.87
2019-02-08T16:13:23.367Z,70.81
2019-02-08T16:16:38.663Z,71.48
2019-02-08T16:19:54.144Z,70.75
2019-02-08T16:23:09.827Z,70.73
2019-02-08T16:26:25.409Z,71.24
2019-02-08T16:29:40.923Z,71.45
2019-02-08T16:32:56.723Z,71.57
2019-02-08T16:36:12.400Z,71.08
2019-02-08T16:39:27.700Z,71.78
2019-02-08T16:42:43.070Z,71.85
2019-02-08T16:45:59.119Z,72.22
2019-02-08T16:49:14.771Z,71.72
2019-02-08T16:52:30.209Z,71.79
2019-02-08T16:55:45.674Z,71.68
2019-02-08T16:59:01.253Z,72.09
2019-02-08T17:02:16.529Z,71.99
2019-02-08T17:05:33.760Z,72.20
2019-02-08T17:08:49.048Z,72.36
2019-02-08T17:12:04.403Z,71.84
2019-02-08T17:15:20.060Z,72.13
2019-02-08T17:18:36.181Z,72.41
2019-02-08T17:21:51.487Z,72.22
2019-02-08T17:25:08.827Z,72.19
2019-02-08T17:28:24.468Z,72.30
2019-02-08T17:31:39.799Z,72.32
2019-02-08T17:34:54.928Z,72.31
2019-02-08T17:38:10.312Z,72.17
2019-02-08T17:41:25.757Z,72.24
2019-02-08T17:44:41.050Z,72.28
2019-02-08T17:47:56.843Z,72.48
2019-02-08T17:51:12.331Z,72.16
2019-02-08T17:54:27.786Z,72.11
2019-02-08T17:57:43.795Z,72.22
2019-02-08T18:00:59.057Z,71.92
2019-02-08T18:04:14.296Z,71.89
2019-02-08T18:07:29.606Z,72.01
2019-02-08T18:10:45.081Z,71.58
2019-02-08T18:14:00.446Z,71.82
2019-02-08T18:17:16.013Z,71.94
2019-02-08T18:20:33.802Z,71.87
2019-02-08T18:24:07.761Z,72.24
2019-02-08T18:27:23.219Z,72.02
2019-02-08T18:30:38.675Z,71.86
2019-02-08T18:33:54.038Z,71.76
2019-02-08T18:37:09.488Z,71.94
2019-02-08T18:40:25.143Z,71.68
2019-02-08T18:43:40.667Z,72.06
2019-02-08T18:46:56.062Z,72.19
2019-02-08T18:50:15.717Z,71.92
2019-02-08T18:53:31.344Z,71.40
2019-02-08T18:56:46.625Z,71.49
2019-02-08T19:00:02.003Z,72.03
2019-02-08T19:03:17.528Z,71.88
2019-02-08T19:06:33.096Z,71.79
2019-02-08T19:09:48.443Z,72.02
2019-02-08T19:13:03.791Z,72.37
2019-02-08T19:16:19.046Z,72.02
2019-02-08T19:19:34.300Z,72.03
2019-02-08T19:22:49.944Z,72.59
2019-02-08T19:26:05.097Z,72.40
2019-02-08T19:29:20.665Z,72.38
2019-02-08T19:32:35.921Z,72.23
2019-02-08T19:35:51.079Z,72.13
2019-02-08T19:39:08.870Z,72.06
2019-02-08T19:42:24.329Z,72.27
2019-02-08T19:45:39.687Z,72.18
2019-02-08T19:48:55.076Z,72.30
2019-02-08T19:52:10.692Z,72.49
2019-02-08T19:55:26.371Z,72.18
2019-02-08T19:58:41.500Z,71.92
2019-02-08T20:01:56.852Z,71.91
2019-02-08T20:05:14.960Z,71.80
2019-02-08T20:08:31.144Z,71.78
2019-02-08T20:11:46.499Z,71.29
2019-02-08T20:15:01.828Z,71.34
2019-02-08T20:18:17.164Z,72.01
2019-02-08T20:21:32.691Z,71.82
2019-02-08T20:24:47.894Z,71.91
2019-02-08T20:28:03.367Z,71.91
2019-02-08T20:31:18.601Z,71.72
2019-02-08T20:34:34.066Z,71.30
2019-02-08T20:37:49.171Z,70.78
2019-02-08T20:41:04.490Z,70.92
2019-02-08T20:44:20.040Z,71.00
2019-02-08T20:47:35.383Z,70.80
2019-02-08T20:50:50.887Z,70.84
2019-02-08T20:54:06.289Z,71.40
2019-02-08T20:57:21.628Z,72.01
2019-02-08T21:00:37.015Z,70.84
2019-02-08T21:03:52.435Z,71.81
2019-02-08T21:07:07.902Z,71.24
2019-02-08T21:10:23.361Z,71.45
2019-02-08T21:13:38.819Z,71.64
2019-02-08T21:16:54.192Z,71.35
2019-02-08T21:20:10.149Z,71.18
2019-02-08T21:23:25.499Z,71.87
2019-02-08T21:26:40.950Z,71.88
2019-02-08T21:29:56.203Z,71.23
2019-02-08T21:33:12.770Z,71.74
2019-02-08T21:36:28.032Z,71.82
2019-02-08T21:39:43.568Z,71.88
2019-02-08T21:42:59.978Z,71.87
2019-02-08T21:46:15.424Z,71.68
2019-02-08T21:49:31.891Z,71.42
2019-02-08T21:52:48.479Z,71.66
2019-02-08T21:56:03.807Z,70.83
2019-02-08T21:59:19.187Z,71.70
2019-02-08T22:02:34.549Z,71.31
2019-02-08T22:05:53.028Z,70.92
2019-02-08T22:09:08.611Z,71.01
2019-02-08T22:12:24.182Z,70.61
2019-02-08T22:15:39.738Z,70.40
2019-02-08T22:18:55.208Z,69.33
2019-02-08T22:22:10.447Z,69.70
2019-02-08T22:25:26.210Z,69.29
2019-02-08T22:28:41.719Z,69.40
2019-02-08T22:31:57.122Z,69.03
2019-02-08T22:35:14.267Z,68.84
2019-02-08T22:38:29.584Z,68.64
2019-02-08T22:41:44.820Z,68.82
2019-02-08T22:45:08.353Z,68.91
2019-02-08T22:48:17.576Z,68.84
2019-02-08T22:51:31.935Z,68.51
2019-02-08T22:54:47.280Z,68.26
2019-02-08T22:58:02.588Z,67.90
2019-02-08T23:01:26.124Z,67.94
2019-02-08T23:04:41.409Z,68.43
2019-02-08T23:07:56.863Z,68.50
2019-02-08T23:11:12.086Z,68.31
2019-02-08T23:14:27.231Z,68.37
2019-02-08T23:17:42.506Z,67.97
2019-02-08T23:20:58.064Z,67.84
2019-02-08T23:24:13.319Z,67.59
2019-02-08T23:27:28.768Z,67.25
2019-02-08T23:30:44.227Z,67.19
2019-02-08T23:33:59.578Z,67.22
2019-02-08T23:37:14.702Z,67.56
2019-02-08T23:40:30.170Z,67.47
2019-02-08T23:43:45.839Z,67.21
2019-02-08T23:47:01.196Z,67.52
2019-02-08T23:50:16.120Z,67.72
2019-02-08T23:53:31.388Z,67.51
2019-02-08T23:56:46.751Z,67.65
